sensor_id;sensor_type;location;lat;lon;timestamp;pressure;altitude;pressure_sealevel;temperature
68127;BMP180;54931;52.098;21.006;2023-04-04T00:00:44;101078.00;;;-0.18
68127;BMP180;54931;52.098;21.006;2023-04-04T00:03:16;101077.60;;;-0.20
68127;BMP180;54931;52.098;21.006;2023-04-04T00:05:44;101075.80;;;-0.20
68127;BMP180;54931;52.098;21.006;2023-04-04T00:08:11;101070.60;;;-0.20
68127;BMP180;54931;52.098;21.006;2023-04-04T00:10:39;101070.60;;;-0.28
68127;BMP180;54931;52.098;21.006;2023-04-04T00:13:08;101066.20;;;-0.30
68127;BMP180;54931;52.098;21.006;2023-04-04T00:15:35;101069.00;;;-0.32
68127;BMP180;54931;52.098;21.006;2023-04-04T00:18:03;101067.00;;;-0.40
68127;BMP180;54931;52.098;21.006;2023-04-04T00:20:31;101068.00;;;-0.40
68127;BMP180;54931;52.098;21.006;2023-04-04T00:22:59;101067.80;;;-0.40
68127;BMP180;54931;52.098;21.006;2023-04-04T00:25:27;101064.40;;;-0.50
68127;BMP180;54931;52.098;21.006;2023-04-04T00:27:54;101067.20;;;-0.50
68127;BMP180;54931;52.098;21.006;2023-04-04T00:30:22;101064.80;;;-0.50
68127;BMP180;54931;52.098;21.006;2023-04-04T00:32:50;101062.00;;;-0.60
68127;BMP180;54931;52.098;21.006;2023-04-04T00:35:17;101060.00;;;-0.60
68127;BMP180;54931;52.098;21.006;2023-04-04T00:37:45;101057.40;;;-0.60
68127;BMP180;54931;52.098;21.006;2023-04-04T00:40:13;101052.80;;;-0.70
68127;BMP180;54931;52.098;21.006;2023-04-04T00:42:41;101050.20;;;-0.70
68127;BMP180;54931;52.098;21.006;2023-04-04T00:45:10;101047.80;;;-0.70
68127;BMP180;54931;52.098;21.006;2023-04-04T00:47:41;101051.60;;;-0.72
68127;BMP180;54931;52.098;21.006;2023-04-04T00:50:10;101042.40;;;-0.80
68127;BMP180;54931;52.098;21.006;2023-04-04T00:52:38;101044.00;;;-0.80
68127;BMP180;54931;52.098;21.006;2023-04-04T00:55:07;101033.00;;;-0.80
68127;BMP180;54931;52.098;21.006;2023-04-04T00:57:35;101036.40;;;-0.90
68127;BMP180;54931;52.098;21.006;2023-04-04T01:00:05;101032.40;;;-0.90
68127;BMP180;54931;52.098;21.006;2023-04-04T01:02:34;101027.60;;;-1.00
68127;BMP180;54931;52.098;21.006;2023-04-04T01:05:03;101022.60;;;-1.08
68127;BMP180;54931;52.098;21.006;2023-04-04T01:07:31;101016.40;;;-1.12
68127;BMP180;54931;52.098;21.006;2023-04-04T01:10:00;101010.20;;;-1.20
68127;BMP180;54931;52.098;21.006;2023-04-04T01:12:30;101012.60;;;-1.30
68127;BMP180;54931;52.098;21.006;2023-04-04T01:14:58;101007.60;;;-1.40
68127;BMP180;54931;52.098;21.006;2023-04-04T01:17:26;101003.80;;;-1.50
68127;BMP180;54931;52.098;21.006;2023-04-04T01:20:12;101004.40;;;-1.60
68127;BMP180;54931;52.098;21.006;2023-04-04T01:22:45;101002.20;;;-1.70
68127;BMP180;54931;52.098;21.006;2023-04-04T01:25:17;101003.60;;;-1.72
68127;BMP180;54931;52.098;21.006;2023-04-04T01:27:45;100999.60;;;-1.80
68127;BMP180;54931;52.098;21.006;2023-04-04T01:30:15;100998.80;;;-1.88
68127;BMP180;54931;52.098;21.006;2023-04-04T01:32:54;100995.60;;;-1.90
68127;BMP180;54931;52.098;21.006;2023-04-04T01:36:09;100996.80;;;-2.00
68127;BMP180;54931;52.098;21.006;2023-04-04T01:38:56;101000.20;;;-2.00
68127;BMP180;54931;52.098;21.006;2023-04-04T01:41:31;100994.40;;;-2.10
68127;BMP180;54931;52.098;21.006;2023-04-04T01:44:00;100999.20;;;-2.10
68127;BMP180;54931;52.098;21.006;2023-04-04T01:46:28;100999.80;;;-2.14
68127;BMP180;54931;52.098;21.006;2023-04-04T01:48:55;101000.40;;;-2.20
68127;BMP180;54931;52.098;21.006;2023-04-04T01:51:23;101002.00;;;-2.26
68127;BMP180;54931;52.098;21.006;2023-04-04T01:53:51;101000.00;;;-2.30
68127;BMP180;54931;52.098;21.006;2023-04-04T01:56:18;100998.60;;;-2.40
68127;BMP180;54931;52.098;21.006;2023-04-04T01:58:46;101001.00;;;-2.40
68127;BMP180;54931;52.098;21.006;2023-04-04T02:01:13;100998.80;;;-2.46
68127;BMP180;54931;52.098;21.006;2023-04-04T02:03:41;100995.40;;;-2.50
68127;BMP180;54931;52.098;21.006;2023-04-04T02:06:08;100997.20;;;-2.50
68127;BMP180;54931;52.098;21.006;2023-04-04T02:08:36;100988.80;;;-2.50
68127;BMP180;54931;52.098;21.006;2023-04-04T02:11:05;100991.40;;;-2.50
68127;BMP180;54931;52.098;21.006;2023-04-04T02:13:33;100988.20;;;-2.54
68127;BMP180;54931;52.098;21.006;2023-04-04T02:16:00;100992.00;;;-2.60
68127;BMP180;54931;52.098;21.006;2023-04-04T02:18:28;100995.60;;;-2.60
68127;BMP180;54931;52.098;21.006;2023-04-04T02:20:56;100997.20;;;-2.60
68127;BMP180;54931;52.098;21.006;2023-04-04T02:23:24;101001.20;;;-2.60
68127;BMP180;54931;52.098;21.006;2023-04-04T02:25:52;101003.40;;;-2.64
68127;BMP180;54931;52.098;21.006;2023-04-04T02:28:19;100999.60;;;-2.68
68127;BMP180;54931;52.098;21.006;2023-04-04T02:30:47;100998.40;;;-2.70
68127;BMP180;54931;52.098;21.006;2023-04-04T02:33:15;100998.00;;;-2.70
68127;BMP180;54931;52.098;21.006;2023-04-04T02:35:43;101001.20;;;-2.70
68127;BMP180;54931;52.098;21.006;2023-04-04T02:38:10;101003.60;;;-2.80
68127;BMP180;54931;52.098;21.006;2023-04-04T02:40:38;101007.60;;;-2.80
68127;BMP180;54931;52.098;21.006;2023-04-04T02:43:07;101004.20;;;-2.90
68127;BMP180;54931;52.098;21.006;2023-04-04T02:45:35;101008.00;;;-2.90
68127;BMP180;54931;52.098;21.006;2023-04-04T02:48:03;101001.60;;;-2.92
68127;BMP180;54931;52.098;21.006;2023-04-04T02:50:31;101007.40;;;-3.00
68127;BMP180;54931;52.098;21.006;2023-04-04T02:52:59;101008.80;;;-3.06
68127;BMP180;54931;52.098;21.006;2023-04-04T02:55:30;101007.00;;;-3.10
68127;BMP180;54931;52.098;21.006;2023-04-04T02:57:57;101008.80;;;-3.12
68127;BMP180;54931;52.098;21.006;2023-04-04T03:00:28;101008.00;;;-3.20
68127;BMP180;54931;52.098;21.006;2023-04-04T03:02:56;101014.40;;;-3.20
68127;BMP180;54931;52.098;21.006;2023-04-04T03:05:26;101011.00;;;-3.20
68127;BMP180;54931;52.098;21.006;2023-04-04T03:07:55;101008.80;;;-3.24
68127;BMP180;54931;52.098;21.006;2023-04-04T03:10:28;101009.40;;;-3.30
68127;BMP180;54931;52.098;21.006;2023-04-04T03:12:58;101009.40;;;-3.30
68127;BMP180;54931;52.098;21.006;2023-04-04T03:15:26;101013.40;;;-3.30
68127;BMP180;54931;52.098;21.006;2023-04-04T03:17:54;101008.20;;;-3.30
68127;BMP180;54931;52.098;21.006;2023-04-04T03:20:22;101006.80;;;-3.30
68127;BMP180;54931;52.098;21.006;2023-04-04T03:22:49;101005.80;;;-3.30
68127;BMP180;54931;52.098;21.006;2023-04-04T03:25:16;101005.60;;;-3.34
68127;BMP180;54931;52.098;21.006;2023-04-04T03:27:44;101010.60;;;-3.40
68127;BMP180;54931;52.098;21.006;2023-04-04T03:30:12;101007.80;;;-3.40
68127;BMP180;54931;52.098;21.006;2023-04-04T03:32:40;101001.80;;;-3.40
68127;BMP180;54931;52.098;21.006;2023-04-04T03:35:09;100997.40;;;-3.42
68127;BMP180;54931;52.098;21.006;2023-04-04T03:37:37;100999.20;;;-3.46
68127;BMP180;54931;52.098;21.006;2023-04-04T03:40:05;100994.60;;;-3.42
68127;BMP180;54931;52.098;21.006;2023-04-04T03:42:34;100992.80;;;-3.44
68127;BMP180;54931;52.098;21.006;2023-04-04T03:45:02;100995.20;;;-3.50
68127;BMP180;54931;52.098;21.006;2023-04-04T03:47:33;100993.40;;;-3.50
68127;BMP180;54931;52.098;21.006;2023-04-04T03:50:01;100999.40;;;-3.50
68127;BMP180;54931;52.098;21.006;2023-04-04T03:52:30;101001.40;;;-3.50
68127;BMP180;54931;52.098;21.006;2023-04-04T03:54:59;100997.80;;;-3.50
68127;BMP180;54931;52.098;21.006;2023-04-04T03:57:27;101002.00;;;-3.50
68127;BMP180;54931;52.098;21.006;2023-04-04T03:59:54;101000.80;;;-3.50
68127;BMP180;54931;52.098;21.006;2023-04-04T04:02:22;101005.60;;;-3.50
68127;BMP180;54931;52.098;21.006;2023-04-04T04:04:50;101002.60;;;-3.50
68127;BMP180;54931;52.098;21.006;2023-04-04T04:07:18;100999.40;;;-3.50
68127;BMP180;54931;52.098;21.006;2023-04-04T04:09:45;100998.20;;;-3.50
68127;BMP180;54931;52.098;21.006;2023-04-04T04:12:13;100998.00;;;-3.50
68127;BMP180;54931;52.098;21.006;2023-04-04T04:14:41;100994.00;;;-3.50
68127;BMP180;54931;52.098;21.006;2023-04-04T04:17:09;100995.60;;;-3.50
68127;BMP180;54931;52.098;21.006;2023-04-04T04:19:36;100996.20;;;-3.50
68127;BMP180;54931;52.098;21.006;2023-04-04T04:22:03;100994.20;;;-3.50
68127;BMP180;54931;52.098;21.006;2023-04-04T04:24:31;100995.20;;;-3.50
68127;BMP180;54931;52.098;21.006;2023-04-04T04:26:58;100997.60;;;-3.50
68127;BMP180;54931;52.098;21.006;2023-04-04T04:29:26;100993.00;;;-3.50
68127;BMP180;54931;52.098;21.006;2023-04-04T04:31:54;100992.40;;;-3.50
68127;BMP180;54931;52.098;21.006;2023-04-04T04:34:22;100991.60;;;-3.46
68127;BMP180;54931;52.098;21.006;2023-04-04T04:36:51;100991.60;;;-3.40
68127;BMP180;54931;52.098;21.006;2023-04-04T04:39:20;100994.80;;;-3.40
68127;BMP180;54931;52.098;21.006;2023-04-04T04:41:48;100989.60;;;-3.34
68127;BMP180;54931;52.098;21.006;2023-04-04T04:44:16;100992.00;;;-3.30
68127;BMP180;54931;52.098;21.006;2023-04-04T04:46:43;100981.40;;;-3.30
68127;BMP180;54931;52.098;21.006;2023-04-04T04:49:11;100989.00;;;-3.22
68127;BMP180;54931;52.098;21.006;2023-04-04T04:51:38;100985.20;;;-3.20
68127;BMP180;54931;52.098;21.006;2023-04-04T04:54:07;100983.80;;;-3.20
68127;BMP180;54931;52.098;21.006;2023-04-04T04:56:35;100978.20;;;-3.10
68127;BMP180;54931;52.098;21.006;2023-04-04T04:59:03;100975.80;;;-3.10
68127;BMP180;54931;52.098;21.006;2023-04-04T05:01:30;100975.40;;;-3.00
68127;BMP180;54931;52.098;21.006;2023-04-04T05:03:58;100980.20;;;-2.90
68127;BMP180;54931;52.098;21.006;2023-04-04T05:06:26;100980.80;;;-2.60
68127;BMP180;54931;52.098;21.006;2023-04-04T05:08:53;100980.00;;;-2.14
68127;BMP180;54931;52.098;21.006;2023-04-04T05:11:21;100983.80;;;-1.70
68127;BMP180;54931;52.098;21.006;2023-04-04T05:13:49;100981.60;;;-1.40
68127;BMP180;54931;52.098;21.006;2023-04-04T05:16:16;100985.00;;;-1.10
68127;BMP180;54931;52.098;21.006;2023-04-04T05:18:44;100980.00;;;-0.84
68127;BMP180;54931;52.098;21.006;2023-04-04T05:21:11;100982.00;;;-0.52
68127;BMP180;54931;52.098;21.006;2023-04-04T05:23:39;100985.20;;;-0.36
68127;BMP180;54931;52.098;21.006;2023-04-04T05:26:06;100984.80;;;0.00
68127;BMP180;54931;52.098;21.006;2023-04-04T05:28:34;100973.80;;;0.20
68127;BMP180;54931;52.098;21.006;2023-04-04T05:31:02;100983.00;;;0.30
68127;BMP180;54931;52.098;21.006;2023-04-04T05:33:29;100985.60;;;0.50
68127;BMP180;54931;52.098;21.006;2023-04-04T05:35:59;100987.60;;;0.60
68127;BMP180;54931;52.098;21.006;2023-04-04T05:38:27;100988.60;;;0.76
68127;BMP180;54931;52.098;21.006;2023-04-04T05:40:54;100990.60;;;1.00
68127;BMP180;54931;52.098;21.006;2023-04-04T05:43:22;100993.60;;;1.00
68127;BMP180;54931;52.098;21.006;2023-04-04T05:45:49;100995.80;;;1.28
68127;BMP180;54931;52.098;21.006;2023-04-04T05:48:17;100996.40;;;1.30
68127;BMP180;54931;52.098;21.006;2023-04-04T05:50:45;100999.20;;;1.42
68127;BMP180;54931;52.098;21.006;2023-04-04T05:53:13;101002.20;;;1.70
68127;BMP180;54931;52.098;21.006;2023-04-04T05:55:41;100998.20;;;2.00
68127;BMP180;54931;52.098;21.006;2023-04-04T05:58:10;101001.00;;;2.16
68127;BMP180;54931;52.098;21.006;2023-04-04T06:00:37;100999.60;;;2.20
68127;BMP180;54931;52.098;21.006;2023-04-04T06:03:05;101000.60;;;2.16
68127;BMP180;54931;52.098;21.006;2023-04-04T06:05:32;100998.60;;;2.40
68127;BMP180;54931;52.098;21.006;2023-04-04T06:08:00;101000.60;;;2.70
68127;BMP180;54931;52.098;21.006;2023-04-04T06:10:28;101000.80;;;2.90
68127;BMP180;54931;52.098;21.006;2023-04-04T06:12:55;100999.00;;;2.90
68127;BMP180;54931;52.098;21.006;2023-04-04T06:15:23;100998.20;;;3.00
68127;BMP180;54931;52.098;21.006;2023-04-04T06:17:51;100994.20;;;3.10
68127;BMP180;54931;52.098;21.006;2023-04-04T06:20:18;100997.00;;;3.18
68127;BMP180;54931;52.098;21.006;2023-04-04T06:22:48;100990.20;;;3.36
68127;BMP180;54931;52.098;21.006;2023-04-04T06:25:16;100992.60;;;3.50
68127;BMP180;54931;52.098;21.006;2023-04-04T06:27:44;100995.20;;;3.70
68127;BMP180;54931;52.098;21.006;2023-04-04T06:30:12;100991.60;;;3.88
68127;BMP180;54931;52.098;21.006;2023-04-04T06:32:43;100998.20;;;3.90
68127;BMP180;54931;52.098;21.006;2023-04-04T06:35:11;100994.00;;;4.02
68127;BMP180;54931;52.098;21.006;2023-04-04T06:37:38;100998.60;;;4.20
68127;BMP180;54931;52.098;21.006;2023-04-04T06:40:07;100993.40;;;4.38
68127;BMP180;54931;52.098;21.006;2023-04-04T06:42:36;100993.80;;;4.30
68127;BMP180;54931;52.098;21.006;2023-04-04T06:45:05;100996.40;;;4.50
68127;BMP180;54931;52.098;21.006;2023-04-04T06:47:32;100994.00;;;4.88
68127;BMP180;54931;52.098;21.006;2023-04-04T06:50:00;100995.20;;;5.08
68127;BMP180;54931;52.098;21.006;2023-04-04T06:52:28;100991.00;;;5.40
68127;BMP180;54931;52.098;21.006;2023-04-04T06:54:55;100996.20;;;5.18
68127;BMP180;54931;52.098;21.006;2023-04-04T06:57:23;101003.00;;;4.46
68127;BMP180;54931;52.098;21.006;2023-04-04T06:59:50;100994.80;;;4.00
68127;BMP180;54931;52.098;21.006;2023-04-04T07:02:18;100996.40;;;4.00
68127;BMP180;54931;52.098;21.006;2023-04-04T07:04:45;100999.80;;;3.90
68127;BMP180;54931;52.098;21.006;2023-04-04T07:07:13;100993.20;;;4.04
68127;BMP180;54931;52.098;21.006;2023-04-04T07:09:41;100989.40;;;4.58
68127;BMP180;54931;52.098;21.006;2023-04-04T07:12:09;100985.80;;;4.62
68127;BMP180;54931;52.098;21.006;2023-04-04T07:14:36;100987.20;;;4.60
68127;BMP180;54931;52.098;21.006;2023-04-04T07:17:04;100990.00;;;4.80
68127;BMP180;54931;52.098;21.006;2023-04-04T07:19:32;100985.40;;;5.24
68127;BMP180;54931;52.098;21.006;2023-04-04T07:21:59;100984.60;;;5.50
68127;BMP180;54931;52.098;21.006;2023-04-04T07:24:27;100980.00;;;5.30
68127;BMP180;54931;52.098;21.006;2023-04-04T07:26:55;100988.60;;;5.40
68127;BMP180;54931;52.098;21.006;2023-04-04T07:29:23;100987.80;;;5.40
68127;BMP180;54931;52.098;21.006;2023-04-04T07:31:50;100987.60;;;5.42
68127;BMP180;54931;52.098;21.006;2023-04-04T07:34:18;100985.20;;;5.30
68127;BMP180;54931;52.098;21.006;2023-04-04T07:36:46;100981.60;;;5.58
68127;BMP180;54931;52.098;21.006;2023-04-04T07:39:14;100979.40;;;5.88
68127;BMP180;54931;52.098;21.006;2023-04-04T07:41:41;100988.60;;;5.80
68127;BMP180;54931;52.098;21.006;2023-04-04T07:44:09;100983.00;;;5.86
68127;BMP180;54931;52.098;21.006;2023-04-04T07:46:37;100982.40;;;6.20
68127;BMP180;54931;52.098;21.006;2023-04-04T07:49:05;100975.80;;;6.58
68127;BMP180;54931;52.098;21.006;2023-04-04T07:51:34;100970.40;;;6.70
68127;BMP180;54931;52.098;21.006;2023-04-04T07:54:03;100972.80;;;6.60
68127;BMP180;54931;52.098;21.006;2023-04-04T07:56:30;100974.20;;;6.70
68127;BMP180;54931;52.098;21.006;2023-04-04T07:58:58;100970.40;;;6.70
68127;BMP180;54931;52.098;21.006;2023-04-04T08:01:25;100968.00;;;6.70
68127;BMP180;54931;52.098;21.006;2023-04-04T08:03:53;100964.20;;;6.64
68127;BMP180;54931;52.098;21.006;2023-04-04T08:06:20;100964.80;;;6.70
68127;BMP180;54931;52.098;21.006;2023-04-04T08:08:48;100963.00;;;6.54
68127;BMP180;54931;52.098;21.006;2023-04-04T08:11:17;100952.20;;;6.70
68127;BMP180;54931;52.098;21.006;2023-04-04T08:13:45;100960.60;;;6.10
68127;BMP180;54931;52.098;21.006;2023-04-04T08:16:13;100962.40;;;5.58
68127;BMP180;54931;52.098;21.006;2023-04-04T08:18:40;100961.60;;;5.20
68127;BMP180;54931;52.098;21.006;2023-04-04T08:21:07;100954.60;;;4.94
68127;BMP180;54931;52.098;21.006;2023-04-04T08:23:35;100951.40;;;5.18
68127;BMP180;54931;52.098;21.006;2023-04-04T08:26:02;100952.20;;;5.60
68127;BMP180;54931;52.098;21.006;2023-04-04T08:28:30;100949.20;;;5.70
68127;BMP180;54931;52.098;21.006;2023-04-04T08:30:57;100947.80;;;5.28
68127;BMP180;54931;52.098;21.006;2023-04-04T08:33:24;100948.60;;;4.78
68127;BMP180;54931;52.098;21.006;2023-04-04T08:35:52;100944.20;;;4.34
68127;BMP180;54931;52.098;21.006;2023-04-04T08:38:20;100943.00;;;4.04
68127;BMP180;54931;52.098;21.006;2023-04-04T08:40:48;100940.00;;;3.90
68127;BMP180;54931;52.098;21.006;2023-04-04T08:43:17;100942.20;;;4.20
68127;BMP180;54931;52.098;21.006;2023-04-04T08:45:48;100941.20;;;4.90
68127;BMP180;54931;52.098;21.006;2023-04-04T08:48:19;100938.40;;;5.20
68127;BMP180;54931;52.098;21.006;2023-04-04T08:50:48;100938.60;;;5.40
68127;BMP180;54931;52.098;21.006;2023-04-04T08:53:16;100944.20;;;5.50
68127;BMP180;54931;52.098;21.006;2023-04-04T08:55:44;100944.40;;;5.20
68127;BMP180;54931;52.098;21.006;2023-04-04T08:58:12;100941.80;;;5.20
68127;BMP180;54931;52.098;21.006;2023-04-04T09:00:39;100945.00;;;5.30
68127;BMP180;54931;52.098;21.006;2023-04-04T09:03:23;100947.20;;;5.20
68127;BMP180;54931;52.098;21.006;2023-04-04T09:05:55;100947.20;;;5.20
68127;BMP180;54931;52.098;21.006;2023-04-04T09:08:23;100942.60;;;5.00
68127;BMP180;54931;52.098;21.006;2023-04-04T09:10:52;100943.60;;;4.90
68127;BMP180;54931;52.098;21.006;2023-04-04T09:13:20;100939.80;;;4.70
68127;BMP180;54931;52.098;21.006;2023-04-04T09:15:51;100937.20;;;4.70
68127;BMP180;54931;52.098;21.006;2023-04-04T09:18:20;100935.60;;;4.70
68127;BMP180;54931;52.098;21.006;2023-04-04T09:20:48;100937.80;;;5.00
68127;BMP180;54931;52.098;21.006;2023-04-04T09:23:19;100930.80;;;4.86
68127;BMP180;54931;52.098;21.006;2023-04-04T09:25:50;100936.80;;;4.70
68127;BMP180;54931;52.098;21.006;2023-04-04T09:28:22;100935.00;;;4.70
68127;BMP180;54931;52.098;21.006;2023-04-04T09:30:51;100935.60;;;4.66
68127;BMP180;54931;52.098;21.006;2023-04-04T09:33:22;100935.20;;;4.60
68127;BMP180;54931;52.098;21.006;2023-04-04T09:35:57;100940.80;;;4.50
68127;BMP180;54931;52.098;21.006;2023-04-04T09:38:28;100942.80;;;4.40
68127;BMP180;54931;52.098;21.006;2023-04-04T09:40:57;100938.20;;;4.06
68127;BMP180;54931;52.098;21.006;2023-04-04T09:43:25;100942.00;;;3.64
68127;BMP180;54931;52.098;21.006;2023-04-04T09:45:54;100939.80;;;3.30
68127;BMP180;54931;52.098;21.006;2023-04-04T09:48:48;100939.40;;;3.10
68127;BMP180;54931;52.098;21.006;2023-04-04T09:51:19;100945.80;;;3.00
68127;BMP180;54931;52.098;21.006;2023-04-04T09:53:47;100946.20;;;2.90
68127;BMP180;54931;52.098;21.006;2023-04-04T09:56:15;100942.40;;;2.90
68127;BMP180;54931;52.098;21.006;2023-04-04T09:58:46;100940.20;;;2.80
68127;BMP180;54931;52.098;21.006;2023-04-04T10:01:16;100942.20;;;2.80
68127;BMP180;54931;52.098;21.006;2023-04-04T10:03:51;100940.20;;;2.74
68127;BMP180;54931;52.098;21.006;2023-04-04T10:06:21;100937.40;;;2.70
68127;BMP180;54931;52.098;21.006;2023-04-04T10:08:49;100936.60;;;2.80
68127;BMP180;54931;52.098;21.006;2023-04-04T10:11:30;100939.40;;;2.80
68127;BMP180;54931;52.098;21.006;2023-04-04T10:14:01;100938.80;;;2.80
68127;BMP180;54931;52.098;21.006;2023-04-04T10:16:33;100934.80;;;2.80
68127;BMP180;54931;52.098;21.006;2023-04-04T10:19:04;100936.00;;;2.90
68127;BMP180;54931;52.098;21.006;2023-04-04T10:21:35;100937.20;;;2.98
68127;BMP180;54931;52.098;21.006;2023-04-04T10:24:05;100938.80;;;3.06
68127;BMP180;54931;52.098;21.006;2023-04-04T10:26:36;100934.40;;;3.14
68127;BMP180;54931;52.098;21.006;2023-04-04T10:29:03;100936.40;;;3.22
68127;BMP180;54931;52.098;21.006;2023-04-04T10:31:38;100934.40;;;3.40
68127;BMP180;54931;52.098;21.006;2023-04-04T10:34:24;100926.60;;;3.56
68127;BMP180;54931;52.098;21.006;2023-04-04T10:37:07;100928.80;;;4.22
68127;BMP180;54931;52.098;21.006;2023-04-04T10:40:04;100927.80;;;4.40
68127;BMP180;54931;52.098;21.006;2023-04-04T10:42:39;100926.40;;;4.20
68127;BMP180;54931;52.098;21.006;2023-04-04T10:45:09;100924.40;;;4.22
68127;BMP180;54931;52.098;21.006;2023-04-04T10:47:38;100920.00;;;4.30
68127;BMP180;54931;52.098;21.006;2023-04-04T10:50:08;100920.00;;;4.28
68127;BMP180;54931;52.098;21.006;2023-04-04T10:52:43;100915.80;;;4.02
68127;BMP180;54931;52.098;21.006;2023-04-04T10:55:13;100917.80;;;4.00
68127;BMP180;54931;52.098;21.006;2023-04-04T10:57:47;100914.60;;;4.34
68127;BMP180;54931;52.098;21.006;2023-04-04T11:00:19;100915.20;;;4.70
68127;BMP180;54931;52.098;21.006;2023-04-04T11:03:01;100913.20;;;4.70
68127;BMP180;54931;52.098;21.006;2023-04-04T11:05:35;100914.80;;;4.50
68127;BMP180;54931;52.098;21.006;2023-04-04T11:08:23;100902.80;;;4.30
68127;BMP180;54931;52.098;21.006;2023-04-04T11:10:54;100912.80;;;4.20
68127;BMP180;54931;52.098;21.006;2023-04-04T11:13:32;100914.80;;;4.10
68127;BMP180;54931;52.098;21.006;2023-04-04T11:16:19;100907.80;;;4.10
68127;BMP180;54931;52.098;21.006;2023-04-04T11:18:48;100912.40;;;4.20
68127;BMP180;54931;52.098;21.006;2023-04-04T11:21:20;100907.40;;;4.34
68127;BMP180;54931;52.098;21.006;2023-04-04T11:29:02;100910.00;;;4.30
68127;BMP180;54931;52.098;21.006;2023-04-04T11:31:43;100906.00;;;4.20
68127;BMP180;54931;52.098;21.006;2023-04-04T11:34:28;100903.80;;;4.10
68127;BMP180;54931;52.098;21.006;2023-04-04T11:36:56;100900.60;;;4.02
68127;BMP180;54931;52.098;21.006;2023-04-04T11:39:31;100901.80;;;3.98
68127;BMP180;54931;52.098;21.006;2023-04-04T11:42:05;100896.80;;;4.00
68127;BMP180;54931;52.098;21.006;2023-04-04T11:45:00;100897.80;;;4.00
68127;BMP180;54931;52.098;21.006;2023-04-04T11:47:30;100904.20;;;4.10
68127;BMP180;54931;52.098;21.006;2023-04-04T11:50:00;100902.20;;;4.20
68127;BMP180;54931;52.098;21.006;2023-04-04T11:52:34;100896.80;;;4.30
68127;BMP180;54931;52.098;21.006;2023-04-04T11:55:22;100898.20;;;4.60
68127;BMP180;54931;52.098;21.006;2023-04-04T11:57:49;100900.00;;;4.60
68127;BMP180;54931;52.098;21.006;2023-04-04T12:00:34;100901.80;;;4.48
68127;BMP180;54931;52.098;21.006;2023-04-04T12:03:08;100896.00;;;4.28
68127;BMP180;54931;52.098;21.006;2023-04-04T12:05:42;100901.80;;;4.10
68127;BMP180;54931;52.098;21.006;2023-04-04T12:08:11;100898.40;;;4.10
68127;BMP180;54931;52.098;21.006;2023-04-04T12:10:40;100895.20;;;4.00
68127;BMP180;54931;52.098;21.006;2023-04-04T12:13:08;100892.60;;;3.80
68127;BMP180;54931;52.098;21.006;2023-04-04T12:15:36;100902.60;;;3.60
68127;BMP180;54931;52.098;21.006;2023-04-04T12:18:07;100902.80;;;3.50
68127;BMP180;54931;52.098;21.006;2023-04-04T12:20:38;100898.00;;;3.30
68127;BMP180;54931;52.098;21.006;2023-04-04T12:23:08;100895.60;;;3.20
68127;BMP180;54931;52.098;21.006;2023-04-04T12:25:37;100897.00;;;3.10
68127;BMP180;54931;52.098;21.006;2023-04-04T12:28:07;100895.80;;;3.16
68127;BMP180;54931;52.098;21.006;2023-04-04T12:30:37;100890.80;;;3.20
68127;BMP180;54931;52.098;21.006;2023-04-04T12:33:05;100896.20;;;3.28
68127;BMP180;54931;52.098;21.006;2023-04-04T12:35:33;100891.40;;;3.40
68127;BMP180;54931;52.098;21.006;2023-04-04T12:38:04;100890.60;;;3.70
68127;BMP180;54931;52.098;21.006;2023-04-04T12:40:37;100887.80;;;3.80
68127;BMP180;54931;52.098;21.006;2023-04-04T12:43:07;100889.40;;;3.80
68127;BMP180;54931;52.098;21.006;2023-04-04T12:45:39;100884.20;;;3.70
68127;BMP180;54931;52.098;21.006;2023-04-04T12:48:11;100887.40;;;3.60
68127;BMP180;54931;52.098;21.006;2023-04-04T12:51:00;100883.80;;;3.42
68127;BMP180;54931;52.098;21.006;2023-04-04T12:53:28;100890.80;;;3.20
68127;BMP180;54931;52.098;21.006;2023-04-04T12:56:03;100888.80;;;3.10
68127;BMP180;54931;52.098;21.006;2023-04-04T12:58:32;100889.60;;;3.00
68127;BMP180;54931;52.098;21.006;2023-04-04T13:01:00;100891.60;;;2.90
68127;BMP180;54931;52.098;21.006;2023-04-04T13:03:28;100883.00;;;2.90
68127;BMP180;54931;52.098;21.006;2023-04-04T13:05:57;100883.60;;;2.80
68127;BMP180;54931;52.098;21.006;2023-04-04T13:08:25;100883.80;;;2.80
68127;BMP180;54931;52.098;21.006;2023-04-04T13:11:03;100887.00;;;2.70
68127;BMP180;54931;52.098;21.006;2023-04-04T13:13:39;100887.60;;;2.70
68127;BMP180;54931;52.098;21.006;2023-04-04T13:16:30;100887.20;;;2.80
68127;BMP180;54931;52.098;21.006;2023-04-04T13:18:58;100884.00;;;2.90
68127;BMP180;54931;52.098;21.006;2023-04-04T13:21:26;100885.60;;;2.92
68127;BMP180;54931;52.098;21.006;2023-04-04T13:23:54;100886.80;;;3.00
68127;BMP180;54931;52.098;21.006;2023-04-04T13:26:21;100885.00;;;3.10
68127;BMP180;54931;52.098;21.006;2023-04-04T13:28:49;100884.60;;;3.10
68127;BMP180;54931;52.098;21.006;2023-04-04T13:31:17;100880.40;;;3.20
68127;BMP180;54931;52.098;21.006;2023-04-04T13:33:45;100889.20;;;3.22
68127;BMP180;54931;52.098;21.006;2023-04-04T13:36:12;100888.00;;;3.20
68127;BMP180;54931;52.098;21.006;2023-04-04T13:38:40;100882.20;;;3.30
68127;BMP180;54931;52.098;21.006;2023-04-04T13:41:08;100881.20;;;3.30
68127;BMP180;54931;52.098;21.006;2023-04-04T13:43:35;100887.20;;;3.40
68127;BMP180;54931;52.098;21.006;2023-04-04T13:46:03;100871.80;;;3.30
68127;BMP180;54931;52.098;21.006;2023-04-04T13:48:30;100877.20;;;3.20
68127;BMP180;54931;52.098;21.006;2023-04-04T13:50:58;100876.60;;;3.20
68127;BMP180;54931;52.098;21.006;2023-04-04T13:53:26;100874.80;;;3.20
68127;BMP180;54931;52.098;21.006;2023-04-04T13:55:54;100879.00;;;3.10
68127;BMP180;54931;52.098;21.006;2023-04-04T13:58:22;100876.60;;;3.10
68127;BMP180;54931;52.098;21.006;2023-04-04T14:00:50;100875.40;;;3.06
68127;BMP180;54931;52.098;21.006;2023-04-04T14:03:17;100874.60;;;3.04
68127;BMP180;54931;52.098;21.006;2023-04-04T14:05:45;100880.00;;;3.10
68127;BMP180;54931;52.098;21.006;2023-04-04T14:08:12;100879.40;;;3.18
68127;BMP180;54931;52.098;21.006;2023-04-04T14:10:41;100875.60;;;3.22